sensor_id;sensor_type;location;lat;lon;timestamp;pressure;altitude;pressure_sealevel;temperature;humidity
10115;BME280;5097;43.260;27.812;2022-09-09T00:00:49;100430.59;;;17.84;70.61
10115;BME280;5097;43.260;27.812;2022-09-09T00:03:20;100433.97;;;17.86;70.25
10115;BME280;5097;43.260;27.812;2022-09-09T00:05:53;100430.22;;;18.00;70.07
10115;BME280;5097;43.260;27.812;2022-09-09T00:08:34;100408.75;;;18.02;69.82
10115;BME280;5097;43.260;27.812;2022-09-09T00:11:03;100423.69;;;17.93;70.00
10115;BME280;5097;43.260;27.812;2022-09-09T00:13:33;100387.47;;;17.78;69.92
10115;BME280;5097;43.260;27.812;2022-09-09T00:16:02;100411.75;;;17.86;70.20
10115;BME280;5097;43.260;27.812;2022-09-09T00:18:33;100408.81;;;17.66;70.86
10115;BME280;5097;43.260;27.812;2022-09-09T00:21:06;100412.47;;;17.76;70.61
10115;BME280;5097;43.260;27.812;2022-09-09T00:23:34;100409.06;;;17.63;71.09
10115;BME280;5097;43.260;27.812;2022-09-09T00:26:04;100410.16;;;17.72;70.73
10115;BME280;5097;43.260;27.812;2022-09-09T00:28:38;100399.72;;;17.80;70.46
10115;BME280;5097;43.260;27.812;2022-09-09T00:31:12;100391.09;;;17.65;71.09
10115;BME280;5097;43.260;27.812;2022-09-09T00:33:38;100403.00;;;17.61;71.09
10115;BME280;5097;43.260;27.812;2022-09-09T00:36:03;100406.25;;;17.53;71.21
10115;BME280;5097;43.260;27.812;2022-09-09T00:38:36;100396.31;;;17.55;71.46
10115;BME280;5097;43.260;27.812;2022-09-09T00:41:06;100404.06;;;17.58;71.28
10115;BME280;5097;43.260;27.812;2022-09-09T00:43:36;100411.09;;;17.25;72.46
10115;BME280;5097;43.260;27.812;2022-09-09T00:46:24;100405.75;;;17.37;72.03
10115;BME280;5097;43.260;27.812;2022-09-09T00:48:57;100394.25;;;17.36;72.20
10115;BME280;5097;43.260;27.812;2022-09-09T00:51:30;100388.84;;;17.25;72.65
10115;BME280;5097;43.260;27.812;2022-09-09T00:54:13;100384.25;;;17.27;72.66
10115;BME280;5097;43.260;27.812;2022-09-09T00:56:47;100376.91;;;17.06;73.50
10115;BME280;5097;43.260;27.812;2022-09-09T00:59:24;100390.81;;;17.23;73.09
10115;BME280;5097;43.260;27.812;2022-09-09T01:01:53;100384.50;;;17.24;73.31
10115;BME280;5097;43.260;27.812;2022-09-09T01:04:27;100393.19;;;17.03;73.72
10115;BME280;5097;43.260;27.812;2022-09-09T01:06:59;100392.13;;;17.17;73.16
10115;BME280;5097;43.260;27.812;2022-09-09T01:09:34;100387.38;;;17.09;73.56
10115;BME280;5097;43.260;27.812;2022-09-09T01:12:07;100387.91;;;17.26;72.97
10115;BME280;5097;43.260;27.812;2022-09-09T01:14:40;100396.34;;;17.08;73.45
10115;BME280;5097;43.260;27.812;2022-09-09T01:17:13;100390.91;;;16.86;74.41
10115;BME280;5097;43.260;27.812;2022-09-09T01:19:55;100393.56;;;16.86;74.75
10115;BME280;5097;43.260;27.812;2022-09-09T01:22:33;100391.25;;;17.05;74.29
10115;BME280;5097;43.260;27.812;2022-09-09T01:25:20;100394.44;;;17.11;73.65
10115;BME280;5097;43.260;27.812;2022-09-09T01:27:55;100378.53;;;16.85;75.09
10115;BME280;5097;43.260;27.812;2022-09-09T01:30:21;100375.44;;;16.91;74.98
10115;BME280;5097;43.260;27.812;2022-09-09T01:32:48;100361.53;;;16.74;74.79
10115;BME280;5097;43.260;27.812;2022-09-09T01:35:27;100380.22;;;16.86;75.08
10115;BME280;5097;43.260;27.812;2022-09-09T01:37:56;100353.56;;;16.86;74.30
10115;BME280;5097;43.260;27.812;2022-09-09T01:40:21;100386.06;;;17.15;74.26
10115;BME280;5097;43.260;27.812;2022-09-09T01:42:45;100379.13;;;17.01;74.59
10115;BME280;5097;43.260;27.812;2022-09-09T01:45:11;100386.41;;;17.11;74.68
10115;BME280;5097;43.260;27.812;2022-09-09T01:47:35;100383.75;;;17.11;74.37
10115;BME280;5097;43.260;27.812;2022-09-09T01:50:16;100382.16;;;17.08;74.79
10115;BME280;5097;43.260;27.812;2022-09-09T01:52:40;100374.63;;;17.02;74.84
10115;BME280;5097;43.260;27.812;2022-09-09T01:55:08;100373.59;;;16.91;75.25
10115;BME280;5097;43.260;27.812;2022-09-09T01:57:40;100378.31;;;16.88;75.82
10115;BME280;5097;43.260;27.812;2022-09-09T02:00:11;100375.81;;;16.73;76.19
10115;BME280;5097;43.260;27.812;2022-09-09T02:02:39;100390.38;;;16.94;75.67
10115;BME280;5097;43.260;27.812;2022-09-09T02:05:17;100388.78;;;17.02;75.16
10115;BME280;5097;43.260;27.812;2022-09-09T02:07:47;100391.19;;;16.94;75.51
10115;BME280;5097;43.260;27.812;2022-09-09T02:10:41;100387.38;;;17.09;75.20
10115;BME280;5097;43.260;27.812;2022-09-09T02:13:16;100386.50;;;17.09;75.92
10115;BME280;5097;43.260;27.812;2022-09-09T02:15:47;100386.19;;;17.14;75.66
10115;BME280;5097;43.260;27.812;2022-09-09T02:18:15;100386.81;;;16.93;76.27
10115;BME280;5097;43.260;27.812;2022-09-09T02:20:43;100392.06;;;16.95;76.39
10115;BME280;5097;43.260;27.812;2022-09-09T02:23:09;100389.16;;;16.98;76.48
10115;BME280;5097;43.260;27.812;2022-09-09T02:25:36;100385.28;;;17.02;76.31
10115;BME280;5097;43.260;27.812;2022-09-09T02:28:12;100393.88;;;16.94;76.71
10115;BME280;5097;43.260;27.812;2022-09-09T02:30:38;100386.66;;;16.83;77.11
10115;BME280;5097;43.260;27.812;2022-09-09T02:33:07;100394.88;;;17.04;76.69
10115;BME280;5097;43.260;27.812;2022-09-09T02:35:41;100393.81;;;17.18;76.30
10115;BME280;5097;43.260;27.812;2022-09-09T02:38:09;100384.59;;;17.11;76.46
10115;BME280;5097;43.260;27.812;2022-09-09T02:40:37;100383.44;;;16.91;77.28
10115;BME280;5097;43.260;27.812;2022-09-09T02:43:01;100381.41;;;16.95;77.15
10115;BME280;5097;43.260;27.812;2022-09-09T02:45:32;100339.44;;;16.72;77.05
10115;BME280;5097;43.260;27.812;2022-09-09T02:48:08;100376.19;;;17.04;76.69
10115;BME280;5097;43.260;27.812;2022-09-09T02:50:40;100393.31;;;17.13;77.54
10115;BME280;5097;43.260;27.812;2022-09-09T02:53:16;100358.22;;;16.95;77.00
10115;BME280;5097;43.260;27.812;2022-09-09T02:55:46;100392.09;;;17.06;77.45
10115;BME280;5097;43.260;27.812;2022-09-09T02:58:16;100382.25;;;17.06;77.12
10115;BME280;5097;43.260;27.812;2022-09-09T03:00:56;100384.97;;;17.18;77.76
10115;BME280;5097;43.260;27.812;2022-09-09T03:03:23;100394.44;;;17.11;77.36
10115;BME280;5097;43.260;27.812;2022-09-09T03:05:47;100383.19;;;16.94;77.42
10115;BME280;5097;43.260;27.812;2022-09-09T03:08:12;100392.53;;;17.00;77.72
10115;BME280;5097;43.260;27.812;2022-09-09T03:10:37;100379.13;;;17.01;77.68
10115;BME280;5097;43.260;27.812;2022-09-09T03:13:03;100377.31;;;17.13;77.10
10115;BME280;5097;43.260;27.812;2022-09-09T03:15:32;100392.22;;;17.16;77.03
10115;BME280;5097;43.260;27.812;2022-09-09T03:17:56;100399.22;;;16.94;78.00
10115;BME280;5097;43.260;27.812;2022-09-09T03:20:22;100394.13;;;17.02;77.59
10115;BME280;5097;43.260;27.812;2022-09-09T03:22:46;100386.22;;;16.89;78.15
10115;BME280;5097;43.260;27.812;2022-09-09T03:25:10;100397.56;;;17.04;77.77
10115;BME280;5097;43.260;27.812;2022-09-09T03:27:34;100388.31;;;16.97;78.79
10115;BME280;5097;43.260;27.812;2022-09-09T03:29:59;100389.94;;;16.87;79.26
10115;BME280;5097;43.260;27.812;2022-09-09T03:32:27;100380.88;;;16.89;79.63
10115;BME280;5097;43.260;27.812;2022-09-09T03:34:52;100390.06;;;16.85;79.09
10115;BME280;5097;43.260;27.812;2022-09-09T03:37:18;100394.16;;;16.78;79.89
10115;BME280;5097;43.260;27.812;2022-09-09T03:39:44;100387.53;;;16.84;79.39
10115;BME280;5097;43.260;27.812;2022-09-09T03:42:12;100391.94;;;16.96;79.18
10115;BME280;5097;43.260;27.812;2022-09-09T03:44:44;100379.41;;;16.85;79.47
10115;BME280;5097;43.260;27.812;2022-09-09T03:47:15;100400.22;;;17.04;78.60
10115;BME280;5097;43.260;27.812;2022-09-09T03:49:40;100390.25;;;16.95;79.36
10115;BME280;5097;43.260;27.812;2022-09-09T03:52:04;100381.03;;;16.99;78.57
10115;BME280;5097;43.260;27.812;2022-09-09T03:54:29;100391.00;;;17.08;78.04
10115;BME280;5097;43.260;27.812;2022-09-09T03:56:53;100391.00;;;17.08;78.07
10115;BME280;5097;43.260;27.812;2022-09-09T03:59:18;100385.31;;;16.89;78.56
10115;BME280;5097;43.260;27.812;2022-09-09T04:01:44;100390.97;;;16.73;79.23
10115;BME280;5097;43.260;27.812;2022-09-09T04:04:09;100392.41;;;16.90;78.89
10115;BME280;5097;43.260;27.812;2022-09-09T04:06:35;100388.78;;;16.91;79.37
10115;BME280;5097;43.260;27.812;2022-09-09T04:08:59;100390.16;;;17.08;78.56
10115;BME280;5097;43.260;27.812;2022-09-09T04:11:28;100362.34;;;16.99;78.56
10115;BME280;5097;43.260;27.812;2022-09-09T04:13:54;100385.81;;;17.18;77.99
10115;BME280;5097;43.260;27.812;2022-09-09T04:16:18;100382.81;;;17.23;78.52
10115;BME280;5097;43.260;27.812;2022-09-09T04:18:43;100407.66;;;17.23;78.14
10115;BME280;5097;43.260;27.812;2022-09-09T04:21:10;100390.44;;;17.28;77.86
10115;BME280;5097;43.260;27.812;2022-09-09T04:23:35;100402.94;;;17.27;78.34
10115;BME280;5097;43.260;27.812;2022-09-09T04:26:01;100380.34;;;17.08;78.53
10115;BME280;5097;43.260;27.812;2022-09-09T04:28:31;100401.78;;;17.54;78.06
10115;BME280;5097;43.260;27.812;2022-09-09T04:30:56;100391.34;;;17.51;77.99
10115;BME280;5097;43.260;27.812;2022-09-09T04:33:21;100404.31;;;17.67;77.85
10115;BME280;5097;43.260;27.812;2022-09-09T04:35:47;100400.06;;;17.87;77.17
10115;BME280;5097;43.260;27.812;2022-09-09T04:38:13;100397.94;;;18.03;76.81
10115;BME280;5097;43.260;27.812;2022-09-09T04:40:38;100384.78;;;18.12;76.50
10115;BME280;5097;43.260;27.812;2022-09-09T04:43:04;100402.28;;;18.16;76.67
10115;BME280;5097;43.260;27.812;2022-09-09T04:45:34;100406.63;;;18.28;76.60
10115;BME280;5097;43.260;27.812;2022-09-09T04:47:59;100396.84;;;18.50;75.82
10115;BME280;5097;43.260;27.812;2022-09-09T04:50:23;100392.56;;;18.58;75.86
10115;BME280;5097;43.260;27.812;2022-09-09T04:52:53;100388.28;;;18.67;75.51
10115;BME280;5097;43.260;27.812;2022-09-09T04:55:17;100391.81;;;19.00;74.61
10115;BME280;5097;43.260;27.812;2022-09-09T04:57:41;100398.56;;;19.16;74.21
10115;BME280;5097;43.260;27.812;2022-09-09T05:00:08;100392.16;;;19.28;73.86
10115;BME280;5097;43.260;27.812;2022-09-09T05:02:38;100389.59;;;19.48;73.21
10115;BME280;5097;43.260;27.812;2022-09-09T05:05:03;100407.84;;;19.64;72.64
10115;BME280;5097;43.260;27.812;2022-09-09T05:07:28;100411.03;;;19.79;71.92
10115;BME280;5097;43.260;27.812;2022-09-09T05:09:53;100408.56;;;19.87;71.34
10115;BME280;5097;43.260;27.812;2022-09-09T05:12:18;100367.22;;;19.89;70.47
10115;BME280;5097;43.260;27.812;2022-09-09T05:14:46;100405.00;;;20.27;70.06
10115;BME280;5097;43.260;27.812;2022-09-09T05:17:10;100389.00;;;20.16;70.35
10115;BME280;5097;43.260;27.812;2022-09-09T05:19:37;100396.63;;;20.10;70.49
10115;BME280;5097;43.260;27.812;2022-09-09T05:22:01;100399.78;;;20.25;70.18
10115;BME280;5097;43.260;27.812;2022-09-09T05:24:33;100394.44;;;20.35;69.41
10115;BME280;5097;43.260;27.812;2022-09-09T05:26:59;100400.69;;;20.65;68.96
10115;BME280;5097;43.260;27.812;2022-09-09T05:29:25;100373.16;;;20.63;67.62
10115;BME280;5097;43.260;27.812;2022-09-09T05:31:51;100388.84;;;20.97;67.49
10115;BME280;5097;43.260;27.812;2022-09-09T05:34:16;100389.69;;;21.07;67.22
10115;BME280;5097;43.260;27.812;2022-09-09T05:36:42;100377.81;;;21.10;67.01
10115;BME280;5097;43.260;27.812;2022-09-09T05:39:06;100383.38;;;21.36;66.54
10115;BME280;5097;43.260;27.812;2022-09-09T05:41:30;100372.09;;;21.33;65.97
10115;BME280;5097;43.260;27.812;2022-09-09T05:43:57;100372.69;;;21.07;67.05
10115;BME280;5097;43.260;27.812;2022-09-09T05:46:24;100382.84;;;21.23;66.80
10115;BME280;5097;43.260;27.812;2022-09-09T05:48:51;100377.00;;;21.57;66.86
10115;BME280;5097;43.260;27.812;2022-09-09T05:51:23;100393.25;;;21.65;65.79
10115;BME280;5097;43.260;27.812;2022-09-09T05:53:51;100385.69;;;21.79;66.03
10115;BME280;5097;43.260;27.812;2022-09-09T05:56:16;100383.59;;;21.72;66.41
10115;BME280;5097;43.260;27.812;2022-09-09T05:58:41;100378.44;;;21.89;66.06
10115;BME280;5097;43.260;27.812;2022-09-09T06:01:08;100330.16;;;21.50;66.41
10115;BME280;5097;43.260;27.812;2022-09-09T06:03:34;100382.69;;;21.82;66.96
10115;BME280;5097;43.260;27.812;2022-09-09T06:05:59;100376.91;;;21.76;66.97
10115;BME280;5097;43.260;27.812;2022-09-09T06:08:23;100356.69;;;21.72;66.28
10115;BME280;5097;43.260;27.812;2022-09-09T06:10:49;100373.19;;;22.15;65.80
10115;BME280;5097;43.260;27.812;2022-09-09T06:13:13;100372.34;;;22.15;66.12
10115;BME280;5097;43.260;27.812;2022-09-09T06:15:38;100346.41;;;21.96;65.68
10115;BME280;5097;43.260;27.812;2022-09-09T06:18:03;100375.97;;;22.23;66.21
10115;BME280;5097;43.260;27.812;2022-09-09T06:20:28;100375.34;;;22.30;65.24
10115;BME280;5097;43.260;27.812;2022-09-09T06:22:53;100380.53;;;22.41;65.39
10115;BME280;5097;43.260;27.812;2022-09-09T06:25:18;100360.47;;;22.35;64.86
10115;BME280;5097;43.260;27.812;2022-09-09T06:27:48;100331.75;;;22.26;64.04
10115;BME280;5097;43.260;27.812;2022-09-09T06:30:12;100358.56;;;22.46;63.34
10115;BME280;5097;43.260;27.812;2022-09-09T06:32:37;100354.09;;;22.54;63.10
10115;BME280;5097;43.260;27.812;2022-09-09T06:35:02;100368.56;;;22.71;62.05
10115;BME280;5097;43.260;27.812;2022-09-09T06:37:26;100399.50;;;22.67;60.77
10115;BME280;5097;43.260;27.812;2022-09-09T06:39:52;100368.78;;;22.78;60.49
10115;BME280;5097;43.260;27.812;2022-09-09T06:42:17;100330.41;;;22.58;60.43
10115;BME280;5097;43.260;27.812;2022-09-09T06:44:46;100354.09;;;22.72;60.95
10115;BME280;5097;43.260;27.812;2022-09-09T06:47:19;100402.53;;;23.08;59.91
10115;BME280;5097;43.260;27.812;2022-09-09T06:49:44;100407.56;;;23.03;60.11
10115;BME280;5097;43.260;27.812;2022-09-09T06:52:11;100389.53;;;23.04;58.95
10115;BME280;5097;43.260;27.812;2022-09-09T06:54:35;100366.00;;;22.88;58.26
10115;BME280;5097;43.260;27.812;2022-09-09T06:57:00;100366.66;;;23.26;56.46
10115;BME280;5097;43.260;27.812;2022-09-09T06:59:48;100371.91;;;23.09;52.83
10115;BME280;5097;43.260;27.812;2022-09-09T07:02:12;100385.75;;;23.15;53.09
10115;BME280;5097;43.260;27.812;2022-09-09T07:04:37;100353.13;;;23.18;49.69
10115;BME280;5097;43.260;27.812;2022-09-09T07:07:03;100395.06;;;23.47;51.50
10115;BME280;5097;43.260;27.812;2022-09-09T07:09:28;100396.16;;;23.54;51.76
10115;BME280;5097;43.260;27.812;2022-09-09T07:11:54;100349.94;;;23.49;50.91
10115;BME280;5097;43.260;27.812;2022-09-09T07:14:24;100363.69;;;23.37;51.41
10115;BME280;5097;43.260;27.812;2022-09-09T07:16:55;100392.78;;;23.60;52.26
10115;BME280;5097;43.260;27.812;2022-09-09T07:19:24;100364.50;;;23.64;52.05
10115;BME280;5097;43.260;27.812;2022-09-09T07:21:50;100360.22;;;23.88;52.57
10115;BME280;5097;43.260;27.812;2022-09-09T07:24:17;100355.75;;;23.97;53.17
10115;BME280;5097;43.260;27.812;2022-09-09T07:26:42;100361.16;;;24.05;51.98
10115;BME280;5097;43.260;27.812;2022-09-09T07:29:07;100363.25;;;24.19;53.34
10115;BME280;5097;43.260;27.812;2022-09-09T07:31:33;100386.50;;;24.20;54.35
10115;BME280;5097;43.260;27.812;2022-09-09T07:34:04;100360.75;;;24.34;50.23
10115;BME280;5097;43.260;27.812;2022-09-09T07:36:31;100396.59;;;24.69;47.18
10115;BME280;5097;43.260;27.812;2022-09-09T07:38:59;100390.03;;;24.64;51.24
10115;BME280;5097;43.260;27.812;2022-09-09T07:41:28;100396.25;;;24.64;52.37
10115;BME280;5097;43.260;27.812;2022-09-09T07:43:54;100402.69;;;24.88;47.08
10115;BME280;5097;43.260;27.812;2022-09-09T07:46:21;100334.03;;;24.15;48.42
10115;BME280;5097;43.260;27.812;2022-09-09T07:48:47;100332.69;;;24.27;46.54
10115;BME280;5097;43.260;27.812;2022-09-09T07:51:18;100339.81;;;24.44;42.68
10115;BME280;5097;43.260;27.812;2022-09-09T07:53:46;100401.16;;;24.69;44.09
10115;BME280;5097;43.260;27.812;2022-09-09T07:56:12;100364.34;;;24.76;43.38
10115;BME280;5097;43.260;27.812;2022-09-09T07:58:38;100394.75;;;25.11;43.53
10115;BME280;5097;43.260;27.812;2022-09-09T08:01:08;100371.13;;;24.64;43.67
10115;BME280;5097;43.260;27.812;2022-09-09T08:03:33;100394.72;;;24.78;44.15
10115;BME280;5097;43.260;27.812;2022-09-09T08:06:00;100372.63;;;24.74;44.63
10115;BME280;5097;43.260;27.812;2022-09-09T08:08:27;100361.16;;;24.89;44.52
10115;BME280;5097;43.260;27.812;2022-09-09T08:10:51;100354.91;;;24.64;44.71
10115;BME280;5097;43.260;27.812;2022-09-09T08:13:16;100359.78;;;25.01;44.67
10115;BME280;5097;43.260;27.812;2022-09-09T08:15:42;100347.94;;;25.19;43.39
10115;BME280;5097;43.260;27.812;2022-09-09T08:18:08;100348.09;;;25.25;44.72
10115;BME280;5097;43.260;27.812;2022-09-09T08:20:33;100343.06;;;25.06;44.60
10115;BME280;5097;43.260;27.812;2022-09-09T08:22:59;100366.69;;;25.37;45.12
10115;BME280;5097;43.260;27.812;2022-09-09T08:25:25;100364.16;;;25.19;40.65
10115;BME280;5097;43.260;27.812;2022-09-09T08:27:52;100334.38;;;25.43;40.75
10115;BME280;5097;43.260;27.812;2022-09-09T08:30:17;100340.97;;;25.41;41.57
10115;BME280;5097;43.260;27.812;2022-09-09T08:32:41;100348.94;;;25.18;41.88
10115;BME280;5097;43.260;27.812;2022-09-09T08:35:09;100345.81;;;25.62;42.42
10115;BME280;5097;43.260;27.812;2022-09-09T08:37:33;100336.28;;;25.83;42.43
10115;BME280;5097;43.260;27.812;2022-09-09T08:39:57;100357.75;;;25.84;43.02
10115;BME280;5097;43.260;27.812;2022-09-09T08:42:36;100357.59;;;25.77;43.62
10115;BME280;5097;43.260;27.812;2022-09-09T08:45:24;100355.28;;;25.66;44.53
10115;BME280;5097;43.260;27.812;2022-09-09T08:48:04;100320.28;;;25.65;44.42
10115;BME280;5097;43.260;27.812;2022-09-09T08:50:32;100337.63;;;25.87;44.45
10115;BME280;5097;43.260;27.812;2022-09-09T08:53:11;100336.28;;;25.83;45.40
10115;BME280;5097;43.260;27.812;2022-09-09T08:55:42;100336.03;;;25.53;45.29
10115;BME280;5097;43.260;27.812;2022-09-09T08:58:14;100322.53;;;25.92;44.68
10115;BME280;5097;43.260;27.812;2022-09-09T09:00:54;100333.91;;;25.80;45.24
10115;BME280;5097;43.260;27.812;2022-09-09T09:03:30;100326.25;;;25.91;45.74
10115;BME280;5097;43.260;27.812;2022-09-09T09:06:06;100326.94;;;26.25;45.69
10115;BME280;5097;43.260;27.812;2022-09-09T09:08:41;100317.91;;;26.09;45.67
10115;BME280;5097;43.260;27.812;2022-09-09T09:11:07;100332.34;;;26.25;45.70
10115;BME280;5097;43.260;27.812;2022-09-09T09:13:39;100330.41;;;26.02;46.19
10115;BME280;5097;43.260;27.812;2022-09-09T09:16:17;100321.88;;;25.51;48.32
10115;BME280;5097;43.260;27.812;2022-09-09T09:18:45;100333.97;;;25.63;49.55
10115;BME280;5097;43.260;27.812;2022-09-09T09:21:13;100322.81;;;26.06;48.75
10115;BME280;5097;43.260;27.812;2022-09-09T09:23:48;100341.03;;;26.43;47.64
10115;BME280;5097;43.260;27.812;2022-09-09T09:26:15;100330.00;;;26.45;47.23
10115;BME280;5097;43.260;27.812;2022-09-09T09:28:41;100339.00;;;26.46;47.95
10115;BME280;5097;43.260;27.812;2022-09-09T09:31:12;100330.66;;;26.70;46.61
10115;BME280;5097;43.260;27.812;2022-09-09T09:33:46;100338.75;;;25.92;49.52
10115;BME280;5097;43.260;27.812;2022-09-09T09:36:14;100342.94;;;26.35;48.97
10115;BME280;5097;43.260;27.812;2022-09-09T09:38:52;100341.25;;;26.57;48.39
10115;BME280;5097;43.260;27.812;2022-09-09T09:41:40;100335.59;;;26.43;48.06
10115;BME280;5097;43.260;27.812;2022-09-09T09:44:24;100359.63;;;26.70;47.67
10115;BME280;5097;43.260;27.812;2022-09-09T09:46:49;100347.84;;;26.08;47.18
10115;BME280;5097;43.260;27.812;2022-09-09T09:49:13;100324.28;;;26.40;45.50
10115;BME280;5097;43.260;27.812;2022-09-09T09:51:39;100323.53;;;26.69;45.38
10115;BME280;5097;43.260;27.812;2022-09-09T09:54:09;100326.69;;;26.35;46.31
10115;BME280;5097;43.260;27.812;2022-09-09T09:56:41;100324.41;;;26.23;46.77
10115;BME280;5097;43.260;27.812;2022-09-09T09:59:21;100322.66;;;25.99;47.84
10115;BME280;5097;43.260;27.812;2022-09-09T10:02:16;100296.91;;;26.58;46.20
10115;BME280;5097;43.260;27.812;2022-09-09T10:04:45;100326.44;;;26.21;46.91
10115;BME280;5097;43.260;27.812;2022-09-09T10:07:12;100328.97;;;26.69;46.91
10115;BME280;5097;43.260;27.812;2022-09-09T10:09:36;100322.28;;;26.80;44.93
10115;BME280;5097;43.260;27.812;2022-09-09T10:12:05;100321.63;;;26.55;44.46
10115;BME280;5097;43.260;27.812;2022-09-09T10:14:40;100320.56;;;26.18;47.67
10115;BME280;5097;43.260;27.812;2022-09-09T10:17:16;100322.72;;;26.22;48.00
10115;BME280;5097;43.260;27.812;2022-09-09T10:19:53;100301.56;;;26.64;47.22
10115;BME280;5097;43.260;27.812;2022-09-09T10:22:25;100315.41;;;25.91;47.05
10115;BME280;5097;43.260;27.812;2022-09-09T10:25:12;100314.16;;;26.57;47.03
10115;BME280;5097;43.260;27.812;2022-09-09T10:27:46;100301.09;;;26.84;47.17
10115;BME280;5097;43.260;27.812;2022-09-09T10:30:24;100302.88;;;26.30;48.09
10115;BME280;5097;43.260;27.812;2022-09-09T10:33:01;100316.56;;;26.75;48.43
10115;BME280;5097;43.260;27.812;2022-09-09T10:35:31;100312.13;;;26.82;47.69
10115;BME280;5097;43.260;27.812;2022-09-09T10:38:15;100317.16;;;26.16;47.81
10115;BME280;5097;43.260;27.812;2022-09-09T10:41:11;100300.75;;;25.86;47.70
10115;BME280;5097;43.260;27.812;2022-09-09T10:44:02;100305.13;;;26.88;47.06
10115;BME280;5097;43.260;27.812;2022-09-09T10:46:41;100309.53;;;27.19;46.65
10115;BME280;5097;43.260;27.812;2022-09-09T10:49:16;100314.44;;;27.23;46.62
10115;BME280;5097;43.260;27.812;2022-09-09T10:51:51;100315.03;;;26.81;48.06
10115;BME280;5097;43.260;27.812;2022-09-09T10:54:32;100323.28;;;27.02;47.49
10115;BME280;5097;43.260;27.812;2022-09-09T10:57:07;100308.97;;;27.08;46.85
10115;BME280;5097;43.260;27.812;2022-09-09T10:59:40;100298.03;;;26.64;48.04
10115;BME280;5097;43.260;27.812;2022-09-09T11:02:14;100307.19;;;26.86;48.00
10115;BME280;5097;43.260;27.812;2022-09-09T11:04:45;100313.28;;;27.03;47.90
10115;BME280;5097;43.260;27.812;2022-09-09T11:07:19;100304.25;;;26.26;49.57
10115;BME280;5097;43.260;27.812;2022-09-09T11:09:53;100305.50;;;27.00;48.19
10115;BME280;5097;43.260;27.812;2022-09-09T11:12:19;100299.97;;;27.46;46.52
10115;BME280;5097;43.260;27.812;2022-09-09T11:14:47;100310.72;;;27.54;46.80
10115;BME280;5097;43.260;27.812;2022-09-09T11:17:18;100313.56;;;27.08;48.16
10115;BME280;5097;43.260;27.812;2022-09-09T11:19:43;100311.03;;;26.91;47.99
10115;BME280;5097;43.260;27.812;2022-09-09T11:22:15;100307.78;;;27.26;48.37
10115;BME280;5097;43.260;27.812;2022-09-09T11:24:45;100287.84;;;26.89;49.35
10115;BME280;5097;43.260;27.812;2022-09-09T11:27:15;100302.38;;;26.73;49.12
10115;BME280;5097;43.260;27.812;2022-09-09T11:33:30;100282.38;;;26.51;49.97
10115;BME280;5097;43.260;27.812;2022-09-09T11:36:13;100291.53;;;26.73;49.27
10115;BME280;5097;43.260;27.812;2022-09-09T11:38:44;100297.56;;;26.83;48.36
10115;BME280;5097;43.260;27.812;2022-09-09T11:41:09;100291.44;;;27.19;48.03
10115;BME280;5097;43.260;27.812;2022-09-09T11:43:39;100299.78;;;27.48;45.18
10115;BME280;5097;43.260;27.812;2022-09-09T11:46:04;100294.09;;;26.66;47.29
10115;BME280;5097;43.260;27.812;2022-09-09T11:48:34;100290.75;;;27.32;44.22
10115;BME280;5097;43.260;27.812;2022-09-09T11:51:02;100282.41;;;27.34;44.11
10115;BME280;5097;43.260;27.812;2022-09-09T11:53:27;100278.03;;;27.18;45.98
10115;BME280;5097;43.260;27.812;2022-09-09T11:56:03;100274.38;;;27.55;46.02
10115;BME280;5097;43.260;27.812;2022-09-09T11:58:30;100280.72;;;26.50;48.41
10115;BME280;5097;43.260;27.812;2022-09-09T12:00:58;100285.75;;;26.53;49.63
10115;BME280;5097;43.260;27.812;2022-09-09T12:03:36;100280.81;;;26.33;51.13
10115;BME280;5097;43.260;27.812;2022-09-09T12:06:14;100287.91;;;26.81;49.73
10115;BME280;5097;43.260;27.812;2022-09-09T12:08:41;100284.03;;;27.28;48.05
10115;BME280;5097;43.260;27.812;2022-09-09T12:11:08;100278.41;;;27.15;49.34
10115;BME280;5097;43.260;27.812;2022-09-09T12:13:32;100265.94;;;26.75;51.09
10115;BME280;5097;43.260;27.812;2022-09-09T12:15:57;100274.31;;;26.66;50.94
10115;BME280;5097;43.260;27.812;2022-09-09T12:18:24;100241.81;;;26.42;51.74
10115;BME280;5097;43.260;27.812;2022-09-09T12:20:57;100259.16;;;26.33;51.65
10115;BME280;5097;43.260;27.812;2022-09-09T12:23:36;100262.72;;;27.10;51.00
10115;BME280;5097;43.260;27.812;2022-09-09T12:26:20;100251.94;;;27.02;49.07
10115;BME280;5097;43.260;27.812;2022-09-09T12:28:53;100256.88;;;26.45;50.65
10115;BME280;5097;43.260;27.812;2022-09-09T12:31:24;100259.53;;;26.30;51.87
10115;BME280;5097;43.260;27.812;2022-09-09T12:33:49;100246.63;;;25.86;52.73
10115;BME280;5097;43.260;27.812;2022-09-09T12:36:20;100252.53;;;26.36;53.12
10115;BME280;5097;43.260;27.812;2022-09-09T12:38:45;100255.25;;;26.59;51.24
10115;BME280;5097;43.260;27.812;2022-09-09T12:41:20;100257.13;;;26.35;52.10
10115;BME280;5097;43.260;27.812;2022-09-09T12:43:44;100247.47;;;26.56;50.68
10115;BME280;5097;43.260;27.812;2022-09-09T12:46:16;100257.16;;;26.88;51.17
10115;BME280;5097;43.260;27.812;2022-09-09T12:48:44;100242.03;;;27.09;50.74
10115;BME280;5097;43.260;27.812;2022-09-09T12:51:19;100250.72;;;27.34;50.44
10115;BME280;5097;43.260;27.812;2022-09-09T12:53:45;100197.53;;;27.18;49.33
10115;BME280;5097;43.260;27.812;2022-09-09T12:56:18;100259.72;;;27.05;50.11
10115;BME280;5097;43.260;27.812;2022-09-09T12:58:45;100257.00;;;27.05;51.00
10115;BME280;5097;43.260;27.812;2022-09-09T13:01:20;100255.00;;;27.29;46.80
10115;BME280;5097;43.260;27.812;2022-09-09T13:03:44;100240.94;;;27.03;50.85
10115;BME280;5097;43.260;27.812;2022-09-09T13:06:17;100227.56;;;27.17;51.35